sensor_id;sensor_type;location;lat;lon;timestamp;pressure;altitude;pressure_sealevel;temperature;humidity
77124;BME280;66079;47.646;19.130;2022-12-18T00:02:56;101755.94;;;-2.04;73.06
77124;BME280;66079;47.646;19.130;2022-12-18T00:05:59;101762.63;;;-2.17;73.51
77124;BME280;66079;47.646;19.130;2022-12-18T00:09:03;101769.69;;;-2.22;73.77
77124;BME280;66079;47.646;19.130;2022-12-18T00:12:06;101790.81;;;-2.20;74.29
77124;BME280;66079;47.646;19.130;2022-12-18T00:15:16;101776.50;;;-2.23;73.00
77124;BME280;66079;47.646;19.130;2022-12-18T00:18:19;101798.28;;;-2.17;72.62
77124;BME280;66079;47.646;19.130;2022-12-18T00:21:22;101796.78;;;-2.21;72.83
77124;BME280;66079;47.646;19.130;2022-12-18T00:24:24;101796.31;;;-2.28;72.69
77124;BME280;66079;47.646;19.130;2022-12-18T00:27:27;101820.63;;;-2.22;72.54
77124;BME280;66079;47.646;19.130;2022-12-18T00:30:30;101807.03;;;-2.37;72.76
77124;BME280;66079;47.646;19.130;2022-12-18T00:33:33;101828.63;;;-2.28;73.07
77124;BME280;66079;47.646;19.130;2022-12-18T00:36:35;101822.56;;;-2.41;73.13
77124;BME280;66079;47.646;19.130;2022-12-18T00:39:38;101812.94;;;-2.52;73.82
77124;BME280;66079;47.646;19.130;2022-12-18T00:42:40;101832.16;;;-2.46;74.20
77124;BME280;66079;47.646;19.130;2022-12-18T00:45:58;101808.81;;;-2.54;74.14
77124;BME280;66079;47.646;19.130;2022-12-18T00:49:01;101822.59;;;-2.43;73.86
77124;BME280;66079;47.646;19.130;2022-12-18T00:52:03;101832.16;;;-2.46;74.34
77124;BME280;66079;47.646;19.130;2022-12-18T00:55:07;101841.66;;;-2.34;74.19
77124;BME280;66079;47.646;19.130;2022-12-18T00:58:10;101845.88;;;-2.33;74.04
77124;BME280;66079;47.646;19.130;2022-12-18T01:01:13;101851.78;;;-2.48;74.82
77124;BME280;66079;47.646;19.130;2022-12-18T01:04:16;101843.31;;;-2.64;74.89
77124;BME280;66079;47.646;19.130;2022-12-18T01:07:20;101846.59;;;-2.62;74.94
77124;BME280;66079;47.646;19.130;2022-12-18T01:10:23;101857.25;;;-2.56;75.18
77124;BME280;66079;47.646;19.130;2022-12-18T01:13:26;101856.28;;;-2.53;75.89
77124;BME280;66079;47.646;19.130;2022-12-18T01:16:29;101857.13;;;-2.53;76.20
77124;BME280;66079;47.646;19.130;2022-12-18T01:19:32;101862.13;;;-2.51;76.12
77124;BME280;66079;47.646;19.130;2022-12-18T01:22:35;101870.84;;;-2.40;75.96
77124;BME280;66079;47.646;19.130;2022-12-18T01:25:38;101879.69;;;-2.31;76.07
77124;BME280;66079;47.646;19.130;2022-12-18T01:28:44;101864.75;;;-2.37;75.99
77124;BME280;66079;47.646;19.130;2022-12-18T01:31:47;101864.09;;;-2.41;76.55
77124;BME280;66079;47.646;19.130;2022-12-18T01:34:49;101883.41;;;-2.37;77.09
77124;BME280;66079;47.646;19.130;2022-12-18T01:37:55;101878.13;;;-2.49;77.16
77124;BME280;66079;47.646;19.130;2022-12-18T01:40:59;101867.19;;;-2.67;77.04
77124;BME280;66079;47.646;19.130;2022-12-18T01:47:44;101888.47;;;-2.68;77.88
77124;BME280;66079;47.646;19.130;2022-12-18T01:50:47;101888.47;;;-2.68;77.63
77124;BME280;66079;47.646;19.130;2022-12-18T01:53:52;101892.88;;;-2.72;77.76
77124;BME280;66079;47.646;19.130;2022-12-18T01:56:54;101883.00;;;-2.93;77.87
77124;BME280;66079;47.646;19.130;2022-12-18T02:00:00;101901.91;;;-2.82;76.74
77124;BME280;66079;47.646;19.130;2022-12-18T02:03:14;101910.72;;;-2.89;77.54
77124;BME280;66079;47.646;19.130;2022-12-18T02:09:29;101907.31;;;-2.88;77.28
77124;BME280;66079;47.646;19.130;2022-12-18T02:19:54;101936.06;;;-2.70;77.91
77124;BME280;66079;47.646;19.130;2022-12-18T02:26:30;101942.41;;;-2.61;77.84
77124;BME280;66079;47.646;19.130;2022-12-18T02:29:40;101926.56;;;-2.66;77.69
77124;BME280;66079;47.646;19.130;2022-12-18T02:32:50;101940.63;;;-2.59;77.80
77124;BME280;66079;47.646;19.130;2022-12-18T02:35:55;101957.13;;;-2.51;77.90
77124;BME280;66079;47.646;19.130;2022-12-18T02:39:01;101959.75;;;-2.52;78.07
77124;BME280;66079;47.646;19.130;2022-12-18T02:42:04;101959.91;;;-2.55;77.67
77124;BME280;66079;47.646;19.130;2022-12-18T02:45:10;101948.63;;;-2.67;77.55
77124;BME280;66079;47.646;19.130;2022-12-18T02:48:13;101945.25;;;-2.67;77.77
77124;BME280;66079;47.646;19.130;2022-12-18T02:55:12;101969.56;;;-2.62;75.76
77124;BME280;66079;47.646;19.130;2022-12-18T03:01:43;101976.03;;;-2.72;76.61
77124;BME280;66079;47.646;19.130;2022-12-18T03:05:01;101974.91;;;-2.66;76.03
77124;BME280;66079;47.646;19.130;2022-12-18T03:08:15;101982.84;;;-2.73;76.80
77124;BME280;66079;47.646;19.130;2022-12-18T03:11:20;101987.34;;;-2.78;76.98
77124;BME280;66079;47.646;19.130;2022-12-18T03:14:44;101978.53;;;-2.88;77.28
77124;BME280;66079;47.646;19.130;2022-12-18T03:18:13;101992.56;;;-2.81;76.78
77124;BME280;66079;47.646;19.130;2022-12-18T03:21:22;101998.06;;;-2.88;78.34
77124;BME280;66079;47.646;19.130;2022-12-18T03:24:27;102002.38;;;-2.90;78.53
77124;BME280;66079;47.646;19.130;2022-12-18T03:27:33;102011.72;;;-2.91;77.94
77124;BME280;66079;47.646;19.130;2022-12-18T03:30:43;102000.75;;;-3.08;77.97
77124;BME280;66079;47.646;19.130;2022-12-18T03:33:54;102020.06;;;-3.04;78.29
77124;BME280;66079;47.646;19.130;2022-12-18T03:37:05;102006.38;;;-3.19;79.29
77124;BME280;66079;47.646;19.130;2022-12-18T03:40:09;102020.56;;;-3.15;79.80
77124;BME280;66079;47.646;19.130;2022-12-18T03:53:56;102029.84;;;-3.49;80.71
77124;BME280;66079;47.646;19.130;2022-12-18T03:57:09;102029.06;;;-3.68;82.15
77124;BME280;66079;47.646;19.130;2022-12-18T04:00:16;102021.59;;;-3.90;82.67
77124;BME280;66079;47.646;19.130;2022-12-18T04:03:40;102043.16;;;-3.80;83.08
77124;BME280;66079;47.646;19.130;2022-12-18T04:06:47;102047.19;;;-3.76;83.09
77124;BME280;66079;47.646;19.130;2022-12-18T04:09:55;102041.63;;;-3.84;84.30
77124;BME280;66079;47.646;19.130;2022-12-18T04:12:59;102040.91;;;-3.86;84.16
77124;BME280;66079;47.646;19.130;2022-12-18T04:16:02;102036.56;;;-4.02;84.72
77124;BME280;66079;47.646;19.130;2022-12-18T04:19:05;102051.06;;;-3.86;84.39
77124;BME280;66079;47.646;19.130;2022-12-18T04:22:13;102052.69;;;-3.85;83.77
77124;BME280;66079;47.646;19.130;2022-12-18T04:25:20;102036.28;;;-3.96;84.51
77124;BME280;66079;47.646;19.130;2022-12-18T04:28:38;102041.72;;;-4.04;84.09
77124;BME280;66079;47.646;19.130;2022-12-18T04:31:41;102050.13;;;-4.03;84.19
77124;BME280;66079;47.646;19.130;2022-12-18T04:34:44;102062.91;;;-4.05;83.88
77124;BME280;66079;47.646;19.130;2022-12-18T04:37:47;102051.50;;;-4.15;84.02
77124;BME280;66079;47.646;19.130;2022-12-18T04:40:50;102074.72;;;-4.04;84.15
77124;BME280;66079;47.646;19.130;2022-12-18T04:43:59;102075.94;;;-4.13;84.00
77124;BME280;66079;47.646;19.130;2022-12-18T04:47:02;102085.25;;;-4.13;85.02
77124;BME280;66079;47.646;19.130;2022-12-18T04:50:05;102091.38;;;-4.17;85.88
77124;BME280;66079;47.646;19.130;2022-12-18T04:53:08;102081.47;;;-4.23;85.43
77124;BME280;66079;47.646;19.130;2022-12-18T04:56:13;102082.38;;;-4.24;85.10
77124;BME280;66079;47.646;19.130;2022-12-18T04:59:16;102099.03;;;-4.19;85.37
77124;BME280;66079;47.646;19.130;2022-12-18T05:02:19;102104.06;;;-4.17;84.86
77124;BME280;66079;47.646;19.130;2022-12-18T05:05:21;102102.53;;;-4.21;85.01
77124;BME280;66079;47.646;19.130;2022-12-18T05:08:24;102114.53;;;-4.25;84.30
77124;BME280;66079;47.646;19.130;2022-12-18T05:11:26;102111.41;;;-4.31;84.63
77124;BME280;66079;47.646;19.130;2022-12-18T05:14:29;102118.19;;;-4.32;85.03
77124;BME280;66079;47.646;19.130;2022-12-18T05:17:31;102125.09;;;-4.34;84.42
77124;BME280;66079;47.646;19.130;2022-12-18T05:20:34;102108.38;;;-4.39;84.77
77124;BME280;66079;47.646;19.130;2022-12-18T05:23:37;102096.31;;;-4.54;84.60
77124;BME280;66079;47.646;19.130;2022-12-18T05:26:40;102130.53;;;-4.43;84.74
77124;BME280;66079;47.646;19.130;2022-12-18T05:29:42;102110.72;;;-4.55;85.09
77124;BME280;66079;47.646;19.130;2022-12-18T05:32:45;102133.00;;;-4.41;84.65
77124;BME280;66079;47.646;19.130;2022-12-18T05:35:55;102120.88;;;-4.55;84.96
77124;BME280;66079;47.646;19.130;2022-12-18T05:38:58;102128.31;;;-4.50;84.93
77124;BME280;66079;47.646;19.130;2022-12-18T05:42:02;102135.84;;;-4.49;85.81
77124;BME280;66079;47.646;19.130;2022-12-18T05:45:05;102124.03;;;-4.50;84.72
77124;BME280;66079;47.646;19.130;2022-12-18T05:48:08;102148.22;;;-4.41;84.93
77124;BME280;66079;47.646;19.130;2022-12-18T05:51:17;102121.38;;;-4.67;84.98
77124;BME280;66079;47.646;19.130;2022-12-18T05:54:20;102139.00;;;-4.64;84.82
77124;BME280;66079;47.646;19.130;2022-12-18T05:57:23;102141.97;;;-4.74;84.67
77124;BME280;66079;47.646;19.130;2022-12-18T06:00:26;102152.88;;;-4.72;85.17
77124;BME280;66079;47.646;19.130;2022-12-18T06:03:29;102177.91;;;-4.63;85.47
77124;BME280;66079;47.646;19.130;2022-12-18T06:06:35;102147.34;;;-4.82;85.06
77124;BME280;66079;47.646;19.130;2022-12-18T06:09:38;102140.66;;;-4.84;85.30
77124;BME280;66079;47.646;19.130;2022-12-18T06:12:40;102161.50;;;-4.76;84.84
77124;BME280;66079;47.646;19.130;2022-12-18T06:15:43;102156.72;;;-4.84;84.69
77124;BME280;66079;47.646;19.130;2022-12-18T06:18:45;102184.09;;;-4.70;84.71
77124;BME280;66079;47.646;19.130;2022-12-18T06:21:49;102160.09;;;-4.83;85.02
77124;BME280;66079;47.646;19.130;2022-12-18T06:24:52;102179.91;;;-4.71;85.14
77124;BME280;66079;47.646;19.130;2022-12-18T06:27:55;102189.03;;;-4.67;85.27
77124;BME280;66079;47.646;19.130;2022-12-18T06:30:58;102195.75;;;-4.66;85.06
77124;BME280;66079;47.646;19.130;2022-12-18T06:34:04;102184.16;;;-4.72;84.67
77124;BME280;66079;47.646;19.130;2022-12-18T06:37:06;102206.53;;;-4.61;84.72
77124;BME280;66079;47.646;19.130;2022-12-18T06:40:09;102214.88;;;-4.58;84.04
77124;BME280;66079;47.646;19.130;2022-12-18T06:43:12;102214.63;;;-4.52;84.74
77124;BME280;66079;47.646;19.130;2022-12-18T06:46:14;102189.81;;;-4.65;84.38
77124;BME280;66079;47.646;19.130;2022-12-18T06:49:17;102221.16;;;-4.46;83.81
77124;BME280;66079;47.646;19.130;2022-12-18T06:52:20;102213.09;;;-4.56;83.54
77124;BME280;66079;47.646;19.130;2022-12-18T06:55:22;102209.84;;;-4.59;83.48
77124;BME280;66079;47.646;19.130;2022-12-18T06:58:25;102237.81;;;-4.39;83.06
77124;BME280;66079;47.646;19.130;2022-12-18T07:01:27;102239.44;;;-4.38;83.46
77124;BME280;66079;47.646;19.130;2022-12-18T07:04:31;102210.69;;;-4.59;82.98
77124;BME280;66079;47.646;19.130;2022-12-18T07:07:34;102238.66;;;-4.39;82.96
77124;BME280;66079;47.646;19.130;2022-12-18T07:10:41;102246.66;;;-4.28;83.06
77124;BME280;66079;47.646;19.130;2022-12-18T07:13:50;102246.00;;;-4.33;82.73
77124;BME280;66079;47.646;19.130;2022-12-18T07:16:52;102242.88;;;-4.39;82.60
77124;BME280;66079;47.646;19.130;2022-12-18T07:19:55;102266.69;;;-4.22;83.02
77124;BME280;66079;47.646;19.130;2022-12-18T07:22:57;102237.50;;;-4.32;82.99
77124;BME280;66079;47.646;19.130;2022-12-18T07:26:10;102271.03;;;-4.03;82.47
77124;BME280;66079;47.646;19.130;2022-12-18T07:29:13;102275.06;;;-3.98;82.30
77124;BME280;66079;47.646;19.130;2022-12-18T07:32:16;102274.09;;;-3.95;82.56
77124;BME280;66079;47.646;19.130;2022-12-18T07:35:19;102287.38;;;-3.89;82.46
77124;BME280;66079;47.646;19.130;2022-12-18T07:38:26;102295.41;;;-3.78;82.12
77124;BME280;66079;47.646;19.130;2022-12-18T07:41:29;102281.88;;;-3.78;81.46
77124;BME280;66079;47.646;19.130;2022-12-18T07:44:39;102300.09;;;-3.69;81.82
77124;BME280;66079;47.646;19.130;2022-12-18T07:47:41;102312.28;;;-3.57;81.36
77124;BME280;66079;47.646;19.130;2022-12-18T07:50:44;102313.81;;;-3.53;81.21
77124;BME280;66079;47.646;19.130;2022-12-18T07:53:47;102318.78;;;-3.50;80.88
77124;BME280;66079;47.646;19.130;2022-12-18T07:56:53;102309.28;;;-3.46;81.08
77124;BME280;66079;47.646;19.130;2022-12-18T07:59:56;102337.44;;;-3.31;80.30
77124;BME280;66079;47.646;19.130;2022-12-18T08:02:59;102288.31;;;-3.51;80.68
77124;BME280;66079;47.646;19.130;2022-12-18T08:06:04;102347.66;;;-3.12;80.25
77124;BME280;66079;47.646;19.130;2022-12-18T08:09:09;102327.38;;;-3.14;79.71
77124;BME280;66079;47.646;19.130;2022-12-18T08:12:12;102318.38;;;-3.21;80.04
77124;BME280;66079;47.646;19.130;2022-12-18T08:15:14;102355.31;;;-2.94;79.91
77124;BME280;66079;47.646;19.130;2022-12-18T08:18:17;102350.50;;;-3.00;79.62
77124;BME280;66079;47.646;19.130;2022-12-18T08:21:30;102337.00;;;-3.02;79.67
77124;BME280;66079;47.646;19.130;2022-12-18T08:24:33;102350.66;;;-2.84;79.63
77124;BME280;66079;47.646;19.130;2022-12-18T08:27:35;102356.31;;;-2.78;79.39
77124;BME280;66079;47.646;19.130;2022-12-18T08:30:38;102340.75;;;-2.72;78.59
77124;BME280;66079;47.646;19.130;2022-12-18T08:33:41;102363.84;;;-2.57;78.92
77124;BME280;66079;47.646;19.130;2022-12-18T08:36:45;102360.59;;;-2.59;78.73
77124;BME280;66079;47.646;19.130;2022-12-18T08:39:47;102363.53;;;-2.50;78.66
77124;BME280;66079;47.646;19.130;2022-12-18T08:42:50;102359.59;;;-2.38;78.17
77124;BME280;66079;47.646;19.130;2022-12-18T08:46:11;102343.63;;;-2.42;78.12
77124;BME280;66079;47.646;19.130;2022-12-18T08:49:14;102366.59;;;-2.25;77.97
77124;BME280;66079;47.646;19.130;2022-12-18T08:52:17;102368.78;;;-2.17;77.97
77124;BME280;66079;47.646;19.130;2022-12-18T08:55:20;102362.94;;;-2.19;77.53
77124;BME280;66079;47.646;19.130;2022-12-18T08:58:24;102377.66;;;-2.07;76.92
77124;BME280;66079;47.646;19.130;2022-12-18T09:01:26;102365.81;;;-2.08;75.78
77124;BME280;66079;47.646;19.130;2022-12-18T09:04:29;102360.94;;;-2.13;75.06
77124;BME280;66079;47.646;19.130;2022-12-18T09:07:31;102370.19;;;-1.93;74.52
77124;BME280;66079;47.646;19.130;2022-12-18T09:10:41;102391.91;;;-1.68;74.20
77124;BME280;66079;47.646;19.130;2022-12-18T09:13:44;102380.94;;;-1.53;73.42
77124;BME280;66079;47.646;19.130;2022-12-18T09:16:47;102394.72;;;-1.05;72.14
77124;BME280;66079;47.646;19.130;2022-12-18T09:19:49;102392.53;;;-0.48;69.61
77124;BME280;66079;47.646;19.130;2022-12-18T09:22:52;102408.81;;;0.12;67.44
77124;BME280;66079;47.646;19.130;2022-12-18T09:25:58;102392.59;;;0.86;64.83
77124;BME280;66079;47.646;19.130;2022-12-18T09:29:02;102399.28;;;1.59;62.44
77124;BME280;66079;47.646;19.130;2022-12-18T09:32:05;102394.00;;;2.28;59.64
77124;BME280;66079;47.646;19.130;2022-12-18T09:35:07;102386.00;;;2.97;56.70
77124;BME280;66079;47.646;19.130;2022-12-18T09:38:15;102382.16;;;3.02;56.20
77124;BME280;66079;47.646;19.130;2022-12-18T09:41:40;102402.38;;;3.80;54.76
77124;BME280;66079;47.646;19.130;2022-12-18T09:44:46;102389.50;;;4.51;51.80
77124;BME280;66079;47.646;19.130;2022-12-18T09:47:53;102402.22;;;5.31;49.98
77124;BME280;66079;47.646;19.130;2022-12-18T09:51:02;102372.91;;;4.88;49.78
77124;BME280;66079;47.646;19.130;2022-12-18T09:54:26;102391.44;;;5.60;47.66
77124;BME280;66079;47.646;19.130;2022-12-18T09:57:33;102389.75;;;6.85;44.37
77124;BME280;66079;47.646;19.130;2022-12-18T10:00:39;102366.16;;;6.48;45.16
77124;BME280;66079;47.646;19.130;2022-12-18T10:03:43;102373.88;;;7.29;43.15
77124;BME280;66079;47.646;19.130;2022-12-18T10:10:38;102383.28;;;7.79;42.05
77124;BME280;66079;47.646;19.130;2022-12-18T10:13:52;102385.03;;;7.69;41.94
77124;BME280;66079;47.646;19.130;2022-12-18T10:17:37;102375.97;;;8.32;39.89
77124;BME280;66079;47.646;19.130;2022-12-18T10:20:43;102385.91;;;8.37;39.79
77124;BME280;66079;47.646;19.130;2022-12-18T10:23:57;102393.00;;;9.00;38.90
77124;BME280;66079;47.646;19.130;2022-12-18T10:27:25;102384.28;;;8.36;39.58
77124;BME280;66079;47.646;19.130;2022-12-18T10:30:28;102383.69;;;8.61;39.04
77124;BME280;66079;47.646;19.130;2022-12-18T10:33:33;102372.66;;;9.32;37.30
77124;BME280;66079;47.646;19.130;2022-12-18T10:36:35;102380.22;;;10.58;35.25
77124;BME280;66079;47.646;19.130;2022-12-18T10:39:38;102372.97;;;10.69;34.60
77124;BME280;66079;47.646;19.130;2022-12-18T10:42:41;102385.25;;;11.44;33.15
77124;BME280;66079;47.646;19.130;2022-12-18T10:46:07;102370.28;;;11.54;31.93
77124;BME280;66079;47.646;19.130;2022-12-18T10:49:23;102360.41;;;12.70;30.20
77124;BME280;66079;47.646;19.130;2022-12-18T10:52:27;102380.63;;;12.76;30.34
77124;BME280;66079;47.646;19.130;2022-12-18T10:55:38;102362.28;;;13.08;29.52
77124;BME280;66079;47.646;19.130;2022-12-18T10:58:41;102383.06;;;11.73;32.39
77124;BME280;66079;47.646;19.130;2022-12-18T11:04:52;102366.31;;;12.64;31.25
77124;BME280;66079;47.646;19.130;2022-12-18T11:07:56;102348.38;;;13.55;29.69
77124;BME280;66079;47.646;19.130;2022-12-18T11:10:59;102354.47;;;14.15;28.44
77124;BME280;66079;47.646;19.130;2022-12-18T11:14:07;102353.75;;;14.21;27.64
77124;BME280;66079;47.646;19.130;2022-12-18T11:17:35;102344.97;;;14.36;27.50
77124;BME280;66079;47.646;19.130;2022-12-18T11:20:38;102347.66;;;14.06;28.03
77124;BME280;66079;47.646;19.130;2022-12-18T11:23:52;102353.13;;;14.56;27.42
77124;BME280;66079;47.646;19.130;2022-12-18T11:26:57;102342.34;;;14.14;27.28
77124;BME280;66079;47.646;19.130;2022-12-18T11:30:24;102357.44;;;14.49;27.13
77124;BME280;66079;47.646;19.130;2022-12-18T11:33:27;102363.22;;;15.32;26.61
77124;BME280;66079;47.646;19.130;2022-12-18T11:36:35;102341.75;;;15.07;25.84
77124;BME280;66079;47.646;19.130;2022-12-18T11:39:51;102337.88;;;15.03;25.98
77124;BME280;66079;47.646;19.130;2022-12-18T11:43:06;102343.31;;;14.87;26.30
77124;BME280;66079;47.646;19.130;2022-12-18T11:46:17;102337.81;;;15.47;25.71
77124;BME280;66079;47.646;19.130;2022-12-18T11:49:27;102330.06;;;15.39;26.23
77124;BME280;66079;47.646;19.130;2022-12-18T11:52:39;102336.13;;;15.39;25.55
77124;BME280;66079;47.646;19.130;2022-12-18T11:56:15;102342.84;;;13.72;26.83
77124;BME280;66079;47.646;19.130;2022-12-18T11:59:36;102343.63;;;15.13;25.53
77124;BME280;66079;47.646;19.130;2022-12-18T12:03:11;102340.34;;;15.26;24.48
77124;BME280;66079;47.646;19.130;2022-12-18T12:09:36;102327.59;;;15.94;23.56
77124;BME280;66079;47.646;19.130;2022-12-18T12:16:15;102336.72;;;16.26;23.74
77124;BME280;66079;47.646;19.130;2022-12-18T12:19:45;102313.19;;;16.60;22.83
77124;BME280;66079;47.646;19.130;2022-12-18T12:26:35;102318.13;;;16.82;22.08
77124;BME280;66079;47.646;19.130;2022-12-18T12:39:27;102328.06;;;16.87;22.51
77124;BME280;66079;47.646;19.130;2022-12-18T12:42:38;102336.09;;;16.79;22.65
77124;BME280;66079;47.646;19.130;2022-12-18T12:49:15;102328.13;;;15.47;24.22
77124;BME280;66079;47.646;19.130;2022-12-18T12:52:39;102349.50;;;14.72;25.90
77124;BME280;66079;47.646;19.130;2022-12-18T12:55:43;102355.88;;;15.98;24.43
77124;BME280;66079;47.646;19.130;2022-12-18T12:58:59;102361.03;;;16.62;23.70
77124;BME280;66079;47.646;19.130;2022-12-18T13:05:23;102370.19;;;15.25;24.34
77124;BME280;66079;47.646;19.130;2022-12-18T13:08:29;102358.22;;;16.15;23.24
77124;BME280;66079;47.646;19.130;2022-12-18T13:11:44;102373.47;;;15.83;23.25
77124;BME280;66079;47.646;19.130;2022-12-18T13:15:24;102358.56;;;16.05;23.39
77124;BME280;66079;47.646;19.130;2022-12-18T13:18:27;102366.13;;;15.93;23.73
77124;BME280;66079;47.646;19.130;2022-12-18T13:21:33;102376.16;;;15.90;23.88
77124;BME280;66079;47.646;19.130;2022-12-18T13:24:36;102376.66;;;15.58;24.17
77124;BME280;66079;47.646;19.130;2022-12-18T13:30:54;102387.53;;;14.08;26.96
77124;BME280;66079;47.646;19.130;2022-12-18T13:34:20;102366.19;;;14.19;27.28
77124;BME280;66079;47.646;19.130;2022-12-18T13:43:46;102396.94;;;14.17;27.71
77124;BME280;66079;47.646;19.130;2022-12-18T13:46:51;102397.66;;;13.58;28.39
77124;BME280;66079;47.646;19.130;2022-12-18T13:49:54;102397.44;;;13.28;29.12
77124;BME280;66079;47.646;19.130;2022-12-18T13:52:58;102395.13;;;12.79;29.44
77124;BME280;66079;47.646;19.130;2022-12-18T13:56:03;102395.94;;;12.79;30.03
77124;BME280;66079;47.646;19.130;2022-12-18T14:02:23;102404.28;;;12.27;30.48
77124;BME280;66079;47.646;19.130;2022-12-18T14:05:29;102398.78;;;11.56;31.62
77124;BME280;66079;47.646;19.130;2022-12-18T14:08:37;102401.41;;;11.22;31.80
77124;BME280;66079;47.646;19.130;2022-12-18T14:11:46;102405.44;;;10.83;33.09
77124;BME280;66079;47.646;19.130;2022-12-18T14:14:51;102399.34;;;10.31;33.52
77124;BME280;66079;47.646;19.130;2022-12-18T14:21:30;102385.34;;;8.04;37.60
77124;BME280;66079;47.646;19.130;2022-12-18T14:24:36;102379.31;;;6.66;41.27
77124;BME280;66079;47.646;19.130;2022-12-18T14:27:47;102404.28;;;5.71;43.98
77124;BME280;66079;47.646;19.130;2022-12-18T14:30:50;102392.81;;;4.86;46.43
77124;BME280;66079;47.646;19.130;2022-12-18T14:33:53;102401.25;;;4.32;48.41
77124;BME280;66079;47.646;19.130;2022-12-18T14:36:55;102421.00;;;4.07;50.07
77124;BME280;66079;47.646;19.130;2022-12-18T14:40:00;102413.81;;;3.76;51.39
77124;BME280;66079;47.646;19.130;2022-12-18T14:43:12;102425.41;;;3.46;52.11
77124;BME280;66079;47.646;19.130;2022-12-18T14:46:28;102433.13;;;3.21;53.30
77124;BME280;66079;47.646;19.130;2022-12-18T14:49:33;102423.56;;;2.98;54.83
77124;BME280;66079;47.646;19.130;2022-12-18T14:52:37;102425.53;;;2.82;55.71
77124;BME280;66079;47.646;19.130;2022-12-18T14:55:46;102434.44;;;2.63;55.94
77124;BME280;66079;47.646;19.130;2022-12-18T15:08:48;102456.22;;;1.91;60.21
77124;BME280;66079;47.646;19.130;2022-12-18T15:11:58;102447.78;;;1.62;60.01
77124;BME280;66079;47.646;19.130;2022-12-18T15:15:02;102442.91;;;1.44;60.74
77124;BME280;66079;47.646;19.130;2022-12-18T15:21:18;102445.03;;;1.23;63.20
77124;BME280;66079;47.646;19.130;2022-12-18T15:24:26;102467.44;;;1.19;63.42
77124;BME280;66079;47.646;19.130;2022-12-18T15:27:35;102480.16;;;1.21;62.69
77124;BME280;66079;47.646;19.130;2022-12-18T15:31:01;102463.66;;;0.97;63.55
77124;BME280;66079;47.646;19.130;2022-12-18T15:37:10;102457.56;;;0.70;64.78
77124;BME280;66079;47.646;19.130;2022-12-18T15:40:21;102484.47;;;0.61;65.12
77124;BME280;66079;47.646;19.130;2022-12-18T15:43:25;102476.94;;;0.44;64.36
77124;BME280;66079;47.646;19.130;2022-12-18T15:46:37;102481.72;;;0.35;65.63
77124;BME280;66079;47.646;19.130;2022-12-18T15:49:41;102484.78;;;0.26;67.04
77124;BME280;66079;47.646;19.130;2022-12-18T15:52:46;102489.91;;;0.26;66.31
77124;BME280;66079;47.646;19.130;2022-12-18T15:55:50;102516.88;;;0.31;66.68
77124;BME280;66079;47.646;19.130;2022-12-18T15:59:17;102503.94;;;0.03;66.97
77124;BME280;66079;47.646;19.130;2022-12-18T16:02:20;102526.50;;;0.11;67.83
77124;BME280;66079;47.646;19.130;2022-12-18T16:05:27;102525.09;;;-0.11;68.46
77124;BME280;66079;47.646;19.130;2022-12-18T16:08:30;102526.66;;;-0.24;68.16
77124;BME280;66079;47.646;19.130;2022-12-18T16:11:36;102502.81;;;-0.57;68.58
77124;BME280;66079;47.646;19.130;2022-12-18T16:14:45;102537.06;;;-0.44;69.45
77124;BME280;66079;47.646;19.130;2022-12-18T16:17:48;102516.34;;;-0.55;70.11
77124;BME280;66079;47.646;19.130;2022-12-18T16:20:51;102518.47;;;-0.63;69.95
77124;BME280;66079;47.646;19.130;2022-12-18T16:23:54;102548.25;;;-0.46;70.31
77124;BME280;66079;47.646;19.130;2022-12-18T16:26:58;102527.91;;;-0.65;70.37
77124;BME280;66079;47.646;19.130;2022-12-18T16:30:02;102538.72;;;-0.60;70.56
77124;BME280;66079;47.646;19.130;2022-12-18T16:33:05;102538.81;;;-0.61;71.75
77124;BME280;66079;47.646;19.130;2022-12-18T16:36:09;102548.94;;;-0.60;71.64
77124;BME280;66079;47.646;19.130;2022-12-18T16:39:12;102551.34;;;-0.74;71.74
77124;BME280;66079;47.646;19.130;2022-12-18T16:42:16;102534.09;;;-1.03;72.04
77124;BME280;66079;47.646;19.130;2022-12-18T16:45:22;102547.00;;;-1.06;72.32
77124;BME280;66079;47.646;19.130;2022-12-18T16:48:24;102558.72;;;-1.02;72.61
77124;BME280;66079;47.646;19.130;2022-12-18T16:51:27;102563.81;;;-1.02;72.09
77124;BME280;66079;47.646;19.130;2022-12-18T16:54:30;102552.31;;;-1.10;72.38
77124;BME280;66079;47.646;19.130;2022-12-18T16:57:33;102554.03;;;-1.11;72.29
77124;BME280;66079;47.646;19.130;2022-12-18T17:00:37;102576.31;;;-1.14;73.41
77124;BME280;66079;47.646;19.130;2022-12-18T17:03:40;102558.22;;;-1.27;73.49
77124;BME280;66079;47.646;19.130;2022-12-18T17:06:46;102565.81;;;-1.25;72.62
77124;BME280;66079;47.646;19.130;2022-12-18T17:09:53;102560.94;;;-1.30;73.56
77124;BME280;66079;47.646;19.130;2022-12-18T17:12:56;102541.84;;;-1.40;73.32
77124;BME280;66079;47.646;19.130;2022-12-18T17:16:07;102569.53;;;-1.33;73.41
77124;BME280;66079;47.646;19.130;2022-12-18T17:19:10;102556.31;;;-1.41;73.67
77124;BME280;66079;47.646;19.130;2022-12-18T17:22:20;102568.84;;;-1.36;75.12
77124;BME280;66079;47.646;19.130;2022-12-18T17:25:23;102571.63;;;-1.41;74.78
77124;BME280;66079;47.646;19.130;2022-12-18T17:28:27;102558.41;;;-1.49;74.24
77124;BME280;66079;47.646;19.130;2022-12-18T17:31:31;102546.81;;;-1.56;74.78
77124;BME280;66079;47.646;19.130;2022-12-18T17:34:34;102550.50;;;-1.61;74.33
77124;BME280;66079;47.646;19.130;2022-12-18T17:37:38;102564.69;;;-1.74;74.32
77124;BME280;66079;47.646;19.130;2022-12-18T17:40:41;102548.03;;;-1.81;74.54
77124;BME280;66079;47.646;19.130;2022-12-18T17:43:55;102567.91;;;-1.71;74.49
77124;BME280;66079;47.646;19.130;2022-12-18T17:46:58;102572.34;;;-1.74;74.50